Terminal Aerodrome Forecast
Issued by NWS Hastings, NE

Home | Current Version | Previous Version | Text Only | Print | Product List | Glossary On
Versions: 1 2 3 4 5 6 7 8 9 10 11 12 13 14 15 16 17 18 19 20 21 22 23 24 25 26 27 28 29 30 31 32
000
FTUS43 KGID 041726
TAFGRI
TAF
KGRI 041726Z 0418/0518 10009KT P6SM SCT040 BKN130 BKN200
     FM042200 14009KT P6SM VCTS SCT040CB BKN100
     FM050300 13006KT P6SM VCTS BKN035CB
     FM051000 12006KT 6SM BR OVC015
     FM051500 12006KT P6SM OVC015=

USA.gov is the U.S. government's official web portal to all federal, state and local government web resources and services.